createdAt,value
2022-09-30T00:01:53.034Z,23.80
2022-09-30T00:04:26.581Z,23.30
2022-09-30T00:06:55.753Z,22.58
2022-09-30T00:09:24.519Z,23.80
2022-09-30T00:11:53.087Z,23.30
2022-09-30T00:14:23.750Z,23.00
2022-09-30T00:16:54.231Z,23.33
2022-09-30T00:19:22.258Z,25.45
2022-09-30T00:21:50.650Z,24.38
2022-09-30T00:24:19.970Z,24.27
2022-09-30T00:26:48.652Z,25.13
2022-09-30T00:29:18.238Z,24.00
2022-09-30T00:31:46.266Z,23.52
2022-09-30T00:34:14.864Z,24.85
2022-09-30T00:37:04.007Z,24.35
2022-09-30T00:39:31.731Z,23.90
2022-09-30T00:42:03.207Z,23.52
2022-09-30T00:45:19.012Z,23.77
2022-09-30T00:48:10.236Z,23.40
2022-09-30T00:50:42.772Z,23.00
2022-09-30T00:53:21.672Z,23.90
2022-09-30T00:56:02.031Z,24.15
2022-09-30T00:58:40.938Z,24.65
2022-09-30T01:01:10.314Z,27.17
2022-09-30T01:03:44.453Z,26.35
2022-09-30T01:06:12.164Z,24.73
2022-09-30T01:08:42.020Z,26.75
2022-09-30T01:11:11.730Z,27.40
2022-09-30T01:13:42.309Z,25.40
2022-09-30T01:16:39.673Z,26.00
2022-09-30T01:19:42.438Z,26.08
2022-09-30T01:22:22.939Z,24.58
2022-09-30T01:25:24.772Z,22.45
2022-09-30T01:28:35.386Z,24.90
2022-09-30T01:31:47.026Z,25.27
2022-09-30T01:34:45.176Z,24.30
2022-09-30T01:38:04.602Z,26.15
2022-09-30T01:40:47.780Z,23.42
2022-09-30T01:43:26.784Z,22.95
2022-09-30T01:46:37.495Z,23.33
2022-09-30T01:49:16.989Z,21.70
2022-09-30T01:52:19.115Z,20.67
2022-09-30T01:54:54.996Z,20.90
2022-09-30T01:57:59.052Z,22.25
2022-09-30T02:00:28.376Z,23.05
2022-09-30T02:03:12.794Z,23.42
2022-09-30T02:06:02.993Z,23.05
2022-09-30T02:09:06.596Z,22.10
2022-09-30T02:11:39.748Z,25.70
2022-09-30T02:14:24.184Z,28.20
2022-09-30T02:17:02.482Z,24.98
2022-09-30T02:19:41.466Z,23.75
2022-09-30T02:22:19.040Z,21.60
2022-09-30T02:24:56.232Z,21.13
2022-09-30T02:27:42.809Z,19.27
2022-09-30T02:30:13.539Z,17.20
2022-09-30T02:32:48.154Z,15.07
2022-09-30T02:35:43.376Z,14.95
2022-09-30T02:38:22.356Z,14.63
2022-09-30T02:41:06.364Z,14.65
2022-09-30T02:43:34.998Z,13.93
2022-09-30T02:46:17.319Z,14.63
2022-09-30T02:49:06.831Z,14.70
2022-09-30T02:51:57.821Z,14.60
2022-09-30T02:54:48.963Z,15.23
2022-09-30T02:57:53.027Z,17.40
2022-09-30T03:00:20.951Z,14.60
2022-09-30T03:02:51.209Z,14.88
2022-09-30T03:05:19.477Z,14.85
2022-09-30T03:07:48.132Z,15.68
2022-09-30T03:10:19.042Z,16.48
2022-09-30T03:13:09.110Z,15.73
2022-09-30T03:16:20.033Z,15.75
2022-09-30T03:18:59.641Z,15.43
2022-09-30T03:21:46.599Z,15.85
2022-09-30T03:24:51.829Z,14.98
2022-09-30T03:27:45.753Z,16.45
2022-09-30T03:30:28.107Z,14.43
2022-09-30T03:33:25.780Z,15.03
2022-09-30T03:36:03.887Z,15.25
2022-09-30T03:38:58.280Z,14.55
2022-09-30T03:41:42.361Z,13.93
2022-09-30T03:44:13.997Z,14.48
2022-09-30T03:46:49.103Z,16.75
2022-09-30T03:49:32.223Z,15.88
2022-09-30T03:52:05.497Z,16.52
2022-09-30T03:54:33.734Z,16.67
2022-09-30T03:57:04.663Z,16.35
2022-09-30T03:59:32.029Z,15.57
2022-09-30T04:02:01.065Z,13.65
2022-09-30T04:04:29.134Z,14.52
2022-09-30T04:06:56.926Z,14.65
2022-09-30T04:09:24.365Z,14.65
2022-09-30T04:11:53.301Z,13.90
2022-09-30T04:14:21.316Z,14.38
2022-09-30T04:16:53.840Z,13.43
2022-09-30T04:19:22.850Z,16.05
2022-09-30T04:21:53.654Z,14.63
2022-09-30T04:24:23.658Z,14.02
2022-09-30T04:26:53.237Z,14.38
2022-09-30T04:29:20.782Z,13.93
2022-09-30T04:31:49.103Z,13.63
2022-09-30T04:34:20.318Z,14.40
2022-09-30T04:36:47.914Z,13.98
2022-09-30T04:39:16.422Z,15.07
2022-09-30T04:41:44.996Z,15.80
2022-09-30T04:44:14.694Z,16.70
2022-09-30T04:46:43.786Z,16.65
2022-09-30T04:49:11.457Z,16.65
2022-09-30T04:51:39.814Z,17.67
2022-09-30T04:54:09.130Z,15.52
2022-09-30T04:56:38.158Z,15.82
2022-09-30T04:59:06.239Z,15.63
2022-09-30T05:01:33.753Z,15.68
2022-09-30T05:04:03.163Z,15.32
2022-09-30T05:06:31.232Z,17.80
2022-09-30T05:08:59.421Z,19.23
2022-09-30T05:11:27.756Z,20.38
2022-09-30T05:13:55.826Z,20.20
2022-09-30T05:16:26.017Z,20.98
2022-09-30T05:18:54.190Z,19.27
2022-09-30T05:21:22.026Z,19.10
2022-09-30T05:23:50.826Z,19.70
2022-09-30T05:26:20.302Z,19.45
2022-09-30T05:28:48.090Z,20.13
2022-09-30T05:31:16.754Z,19.95
2022-09-30T05:33:46.549Z,21.58
2022-09-30T05:36:17.316Z,24.80
2022-09-30T05:38:45.889Z,24.27
2022-09-30T05:41:15.011Z,21.45
2022-09-30T05:43:51.372Z,20.63
2022-09-30T05:46:20.716Z,19.65
2022-09-30T05:48:50.620Z,20.17
2022-09-30T05:51:18.429Z,19.63
2022-09-30T05:53:46.133Z,21.02
2022-09-30T05:56:15.900Z,24.27
2022-09-30T05:58:43.950Z,28.85
2022-09-30T06:01:15.697Z,25.63
2022-09-30T06:03:45.349Z,25.02
2022-09-30T06:06:13.692Z,25.85
2022-09-30T06:08:43.912Z,23.85
2022-09-30T06:11:19.414Z,23.58
2022-09-30T06:13:49.788Z,24.13
2022-09-30T06:16:18.948Z,25.73
2022-09-30T06:18:48.119Z,22.13
2022-09-30T06:21:18.329Z,22.13
2022-09-30T06:23:48.069Z,20.60
2022-09-30T06:26:16.659Z,20.88
2022-09-30T06:28:45.854Z,21.65
2022-09-30T06:31:15.855Z,23.90
2022-09-30T06:33:44.173Z,26.08
2022-09-30T06:36:12.387Z,26.63
2022-09-30T06:38:41.776Z,26.52
2022-09-30T06:41:10.787Z,25.73
2022-09-30T06:44:00.928Z,25.55
2022-09-30T06:46:31.451Z,24.80
2022-09-30T06:49:12.024Z,26.88
2022-09-30T06:51:42.292Z,25.45
2022-09-30T06:54:11.199Z,27.27
2022-09-30T06:56:39.318Z,23.17
2022-09-30T06:59:09.694Z,22.98
2022-09-30T07:01:37.805Z,21.52
2022-09-30T07:04:09.994Z,20.63
2022-09-30T07:06:40.121Z,20.55
2022-09-30T07:09:08.819Z,18.67
2022-09-30T07:11:37.867Z,16.92
2022-09-30T07:14:11.437Z,17.65
2022-09-30T07:16:41.279Z,18.65
2022-09-30T07:19:13.185Z,15.98
2022-09-30T07:21:41.705Z,16.85
2022-09-30T07:24:10.546Z,15.32
2022-09-30T07:26:39.928Z,16.05
2022-09-30T07:29:08.758Z,14.68
2022-09-30T07:31:40.282Z,16.90
2022-09-30T07:34:09.481Z,14.57
2022-09-30T07:36:45.581Z,13.80
2022-09-30T07:39:13.841Z,78.80
2022-09-30T07:41:42.958Z,35.60
2022-09-30T07:44:15.017Z,14.40
2022-09-30T07:46:44.806Z,12.60
2022-09-30T07:49:28.104Z,12.75
2022-09-30T07:51:59.824Z,14.68
2022-09-30T07:54:38.825Z,13.07
2022-09-30T07:57:11.757Z,12.63
2022-09-30T07:59:43.165Z,13.43
2022-09-30T08:02:19.121Z,13.43
2022-09-30T08:04:48.666Z,11.80
2022-09-30T08:07:18.833Z,10.70
2022-09-30T08:09:46.592Z,10.15
2022-09-30T08:12:14.307Z,10.77
2022-09-30T08:14:45.785Z,10.95
2022-09-30T08:17:15.806Z,10.02
2022-09-30T08:19:47.337Z,13.38
2022-09-30T08:22:17.732Z,11.23
2022-09-30T08:24:47.325Z,11.85
2022-09-30T08:27:15.700Z,9.65
2022-09-30T08:30:04.245Z,9.27
2022-09-30T08:32:33.726Z,9.38
2022-09-30T08:35:03.310Z,10.57
2022-09-30T08:37:34.915Z,11.35
2022-09-30T08:40:03.694Z,13.93
2022-09-30T08:43:02.958Z,13.95
2022-09-30T08:46:28.404Z,14.80
2022-09-30T08:49:43.328Z,14.45
2022-09-30T08:52:30.417Z,19.73
2022-09-30T08:55:09.294Z,15.75
2022-09-30T08:57:47.473Z,14.85
2022-09-30T09:00:19.984Z,15.88
2022-09-30T09:02:56.387Z,16.00
2022-09-30T09:05:38.628Z,21.13
2022-09-30T09:08:37.419Z,21.38
2022-09-30T09:11:42.685Z,17.75
2022-09-30T09:14:50.840Z,23.63
2022-09-30T09:18:04.533Z,18.52
2022-09-30T09:20:50.866Z,14.73
2022-09-30T09:23:22.174Z,16.17
2022-09-30T09:25:57.030Z,18.48
2022-09-30T09:28:46.462Z,19.15
2022-09-30T09:31:21.573Z,17.45
2022-09-30T09:33:49.131Z,15.55
2022-09-30T09:36:50.900Z,15.73
2022-09-30T09:39:46.272Z,15.57
2022-09-30T09:45:59.204Z,15.50
2022-09-30T09:48:28.272Z,15.60
2022-09-30T09:51:25.935Z,15.15
2022-09-30T09:53:59.560Z,15.80
2022-09-30T09:56:34.233Z,15.68
2022-09-30T09:59:28.122Z,15.82
2022-09-30T10:01:56.208Z,15.52
2022-09-30T10:04:33.401Z,15.68
2022-09-30T10:07:14.324Z,20.23
2022-09-30T10:09:44.668Z,15.93
2022-09-30T10:12:13.251Z,16.52
2022-09-30T10:14:59.859Z,16.42
2022-09-30T10:17:32.394Z,19.02
2022-09-30T10:20:06.442Z,15.10
2022-09-30T10:22:37.353Z,25.08
2022-09-30T10:25:25.250Z,14.90
2022-09-30T10:28:20.032Z,11.45
2022-09-30T10:31:00.821Z,17.20
2022-09-30T10:33:51.129Z,12.70
2022-09-30T10:36:22.668Z,15.30
2022-09-30T10:39:01.204Z,15.65
2022-09-30T10:41:35.604Z,14.57
2022-09-30T10:44:14.797Z,15.75
2022-09-30T10:46:47.657Z,18.20
2022-09-30T10:49:31.573Z,15.80
2022-09-30T10:52:02.688Z,16.80
2022-09-30T10:54:56.926Z,14.77
2022-09-30T10:57:39.890Z,9.70
2022-09-30T11:00:25.329Z,18.13
2022-09-30T11:02:58.932Z,12.55
2022-09-30T11:05:48.615Z,12.65
2022-09-30T11:08:44.759Z,13.20
2022-09-30T11:11:30.504Z,10.88
2022-09-30T11:14:55.156Z,13.13
2022-09-30T11:18:07.128Z,10.80
2022-09-30T11:20:53.453Z,11.95
2022-09-30T11:24:02.589Z,23.17
2022-09-30T11:26:32.804Z,16.70
2022-09-30T11:29:16.777Z,28.00
2022-09-30T11:32:18.325Z,12.93
2022-09-30T11:35:14.694Z,13.30
2022-09-30T11:38:19.240Z,12.20
2022-09-30T11:41:23.727Z,7.88
2022-09-30T11:44:24.096Z,8.15
2022-09-30T11:47:14.237Z,9.35
2022-09-30T11:50:07.319Z,11.30
2022-09-30T11:53:15.529Z,10.27
2022-09-30T11:56:36.614Z,10.25
2022-09-30T11:59:15.656Z,10.55
2022-09-30T12:01:51.337Z,15.55
2022-09-30T12:04:46.292Z,10.50
2022-09-30T12:07:24.649Z,11.48
2022-09-30T12:10:01.929Z,27.83
2022-09-30T12:12:30.301Z,8.18
2022-09-30T12:15:08.596Z,7.38
2022-09-30T12:18:02.365Z,7.28
2022-09-30T12:20:44.338Z,7.82
2022-09-30T12:23:39.791Z,9.50
2022-09-30T12:26:07.936Z,11.02
2022-09-30T12:29:18.315Z,8.40
2022-09-30T12:32:23.082Z,11.32
2022-09-30T12:35:34.288Z,9.73
2022-09-30T12:38:23.059Z,8.65
2022-09-30T12:41:38.398Z,9.60
2022-09-30T12:44:24.653Z,8.63
2022-09-30T12:47:17.706Z,8.25
2022-09-30T12:49:47.006Z,9.05
2022-09-30T12:52:21.106Z,9.07
2022-09-30T12:55:01.158Z,8.63
2022-09-30T12:57:37.339Z,16.90
2022-09-30T13:00:14.393Z,7.75
2022-09-30T13:02:49.823Z,8.55
2022-09-30T13:05:32.798Z,9.07
2022-09-30T13:08:06.640Z,9.25
2022-09-30T13:10:37.494Z,10.68
2022-09-30T13:13:11.010Z,23.15
2022-09-30T13:15:41.417Z,11.10
2022-09-30T13:18:21.092Z,10.82
2022-09-30T13:21:08.125Z,10.90
2022-09-30T13:23:48.844Z,11.40
2022-09-30T13:26:34.895Z,10.27
2022-09-30T13:29:02.563Z,10.75
2022-09-30T13:31:52.878Z,11.02
2022-09-30T13:34:35.401Z,9.38
2022-09-30T13:37:27.186Z,10.82
2022-09-30T13:39:57.298Z,15.70
2022-09-30T13:42:39.667Z,13.27
2022-09-30T13:45:35.224Z,12.85
2022-09-30T13:48:19.825Z,12.50
2022-09-30T13:50:52.789Z,13.95
2022-09-30T13:53:45.655Z,10.55
2022-09-30T13:56:29.457Z,9.97
2022-09-30T13:59:32.585Z,11.85
2022-09-30T14:03:00.319Z,12.07
2022-09-30T14:06:48.394Z,9.88
2022-09-30T14:09:36.846Z,10.90
2022-09-30T14:12:17.789Z,11.00
2022-09-30T14:15:06.698Z,10.23
2022-09-30T14:17:58.280Z,9.38
2022-09-30T14:20:39.589Z,11.43
2022-09-30T14:23:19.137Z,11.30
2022-09-30T14:26:44.100Z,16.05
2022-09-30T14:40:56.819Z,16.70
2022-09-30T14:43:42.560Z,18.13
2022-09-30T14:46:35.180Z,15.05
2022-09-30T14:49:22.859Z,13.90
2022-09-30T14:51:52.282Z,15.00
2022-09-30T14:54:23.586Z,17.17
2022-09-30T14:56:54.803Z,22.67
2022-09-30T14:59:42.100Z,21.05
2022-09-30T15:02:23.644Z,11.35
2022-09-30T15:05:01.380Z,11.32
2022-09-30T15:07:29.736Z,12.05
2022-09-30T15:10:02.641Z,11.70
2022-09-30T15:12:32.817Z,11.38
2022-09-30T15:15:00.765Z,18.63
2022-09-30T15:17:36.600Z,24.13
2022-09-30T15:20:23.074Z,79.57
2022-09-30T15:22:53.340Z,24.95
2022-09-30T15:25:22.060Z,33.97
2022-09-30T15:27:50.603Z,34.53
2022-09-30T15:30:33.381Z,31.27
2022-09-30T15:33:07.449Z,35.33
2022-09-30T15:35:35.457Z,36.40
2022-09-30T15:38:27.556Z,39.70
2022-09-30T15:41:10.943Z,33.05
2022-09-30T15:46:38.831Z,24.08
2022-09-30T15:49:48.893Z,35.78
2022-09-30T15:52:30.178Z,29.73
2022-09-30T15:55:00.613Z,23.23
2022-09-30T15:57:47.585Z,38.35
2022-09-30T16:00:39.789Z,27.38
2022-09-30T16:03:27.162Z,34.40
2022-09-30T16:06:10.987Z,28.45
2022-09-30T16:08:48.976Z,21.25
2022-09-30T16:11:59.287Z,22.65
2022-09-30T16:14:32.639Z,15.88
2022-09-30T16:17:04.307Z,16.05
2022-09-30T16:19:32.623Z,14.75
2022-09-30T16:22:00.550Z,15.68
2022-09-30T16:24:28.485Z,15.63
2022-09-30T16:26:58.755Z,20.95
2022-09-30T16:29:28.366Z,21.73
2022-09-30T16:32:04.091Z,25.13
2022-09-30T16:34:37.397Z,30.73
2022-09-30T16:37:14.944Z,30.45
2022-09-30T16:39:42.412Z,34.08
2022-09-30T16:42:17.507Z,27.02
2022-09-30T16:44:45.422Z,33.65
2022-09-30T16:47:15.720Z,29.70
2022-09-30T16:49:45.464Z,42.28
2022-09-30T16:52:14.908Z,44.05
2022-09-30T16:54:44.087Z,44.45
2022-09-30T16:57:15.171Z,43.03
2022-09-30T16:59:42.636Z,39.42
2022-09-30T17:02:19.062Z,41.70
2022-09-30T17:04:48.236Z,41.63
2022-09-30T17:07:15.726Z,40.83
2022-09-30T17:09:43.652Z,39.30
2022-09-30T17:12:12.372Z,36.60
2022-09-30T17:14:46.088Z,34.97
2022-09-30T17:17:14.150Z,37.80
2022-09-30T17:19:41.511Z,51.75
2022-09-30T17:22:08.941Z,40.65
2022-09-30T17:24:38.683Z,58.60
2022-09-30T17:27:06.925Z,49.17
2022-09-30T17:29:34.090Z,69.78
2022-09-30T17:32:01.787Z,58.67
2022-09-30T17:34:29.927Z,48.13
2022-09-30T17:36:57.217Z,42.53
2022-09-30T17:39:29.400Z,28.95
2022-09-30T17:42:15.423Z,75.30
2022-09-30T17:44:42.727Z,83.50
2022-09-30T17:47:09.907Z,95.30
2022-09-30T17:49:37.603Z,90.18
2022-09-30T17:52:05.703Z,87.82
2022-09-30T17:54:34.524Z,62.42
2022-09-30T17:57:02.453Z,46.83
2022-09-30T17:59:30.198Z,67.10
2022-09-30T18:02:01.437Z,44.40
2022-09-30T18:04:29.443Z,46.40
2022-09-30T18:06:57.358Z,46.38
2022-09-30T18:09:25.676Z,71.95
2022-09-30T18:11:56.663Z,59.88
2022-09-30T18:14:25.377Z,37.67
2022-09-30T18:16:52.941Z,36.88
2022-09-30T18:19:21.600Z,34.08
2022-09-30T18:21:48.828Z,45.83
2022-09-30T18:24:16.160Z,39.90
2022-09-30T18:26:45.890Z,33.88
2022-09-30T18:29:14.374Z,31.27
2022-09-30T18:31:43.345Z,31.48
2022-09-30T18:34:14.711Z,31.98
2022-09-30T18:36:45.395Z,29.88
2022-09-30T18:39:12.851Z,32.33
2022-09-30T18:41:45.831Z,39.97
2022-09-30T18:44:14.004Z,38.33
2022-09-30T18:46:49.970Z,56.42
2022-09-30T18:49:18.614Z,72.53
2022-09-30T18:51:48.627Z,81.28
2022-09-30T18:54:16.971Z,77.15
2022-09-30T18:56:46.738Z,80.30
2022-09-30T18:59:19.511Z,57.25
2022-09-30T19:01:50.761Z,50.22
2022-09-30T19:04:19.735Z,42.08
2022-09-30T19:06:48.500Z,35.90
2022-09-30T19:09:18.481Z,34.40
2022-09-30T19:11:49.559Z,46.75
2022-09-30T19:14:16.815Z,46.35
2022-09-30T19:16:46.963Z,53.60
2022-09-30T19:19:18.982Z,38.35
2022-09-30T19:21:46.375Z,41.90
2022-09-30T19:24:13.687Z,33.08
2022-09-30T19:26:43.412Z,37.33
2022-09-30T19:29:12.402Z,29.88
2022-09-30T19:31:43.242Z,33.15
2022-09-30T19:34:13.920Z,33.92
2022-09-30T19:36:54.129Z,50.22
2022-09-30T19:39:21.372Z,60.67
2022-09-30T19:41:49.198Z,51.60
2022-09-30T19:44:19.177Z,73.15
2022-09-30T19:46:50.553Z,53.38
2022-09-30T19:49:21.697Z,40.78
2022-09-30T19:51:54.453Z,45.55
2022-09-30T19:54:36.172Z,72.88
2022-09-30T19:57:08.823Z,37.35
2022-09-30T19:59:36.125Z,29.10
2022-09-30T20:02:03.627Z,31.00
2022-09-30T20:04:34.459Z,32.53
2022-09-30T20:07:04.763Z,26.35
2022-09-30T20:09:32.064Z,51.50
2022-09-30T20:11:59.415Z,50.65
2022-09-30T20:14:45.923Z,30.83
2022-09-30T20:17:13.234Z,28.45
2022-09-30T20:19:44.402Z,43.80
2022-09-30T20:22:11.806Z,35.25
2022-09-30T20:24:39.822Z,27.27
2022-09-30T20:27:07.014Z,24.75
2022-09-30T20:29:37.012Z,26.23
2022-09-30T20:32:06.982Z,26.80
2022-09-30T20:34:39.424Z,28.13
2022-09-30T20:37:06.798Z,29.63
2022-09-30T20:39:34.772Z,32.75
2022-09-30T20:42:01.949Z,29.98
2022-09-30T20:44:30.857Z,73.60
2022-09-30T20:47:02.959Z,33.40
2022-09-30T20:49:30.205Z,33.70
2022-09-30T20:51:57.404Z,32.22
2022-09-30T20:54:25.025Z,31.80
2022-09-30T20:57:06.654Z,27.52
2022-09-30T20:59:34.569Z,46.75
2022-09-30T21:02:01.838Z,29.30
2022-09-30T21:04:29.361Z,27.17
2022-09-30T21:06:56.424Z,25.65
2022-09-30T21:09:23.564Z,22.83
2022-09-30T21:11:50.708Z,24.15
2022-09-30T21:14:18.857Z,25.77
2022-09-30T21:16:48.266Z,26.92
2022-09-30T21:19:15.382Z,116.28
2022-09-30T21:21:42.445Z,26.45
2022-09-30T21:24:16.810Z,32.47
2022-09-30T21:26:43.965Z,22.23
2022-09-30T21:29:11.147Z,20.58
2022-09-30T21:31:40.780Z,25.77
2022-09-30T21:34:16.871Z,23.77
2022-09-30T21:36:44.243Z,26.30
2022-09-30T21:39:12.309Z,27.15
2022-09-30T21:41:40.768Z,24.38
2022-09-30T21:44:07.924Z,21.48
2022-09-30T21:46:35.764Z,38.95
2022-09-30T21:49:18.202Z,27.55
2022-09-30T21:51:46.028Z,23.53
2022-09-30T21:54:15.130Z,26.40
2022-09-30T21:56:43.720Z,23.13
2022-09-30T21:59:12.549Z,23.08
2022-09-30T22:01:40.455Z,22.05
2022-09-30T22:04:09.646Z,23.23
2022-09-30T22:06:41.190Z,22.25
2022-09-30T22:09:12.493Z,22.65
2022-09-30T22:11:40.568Z,21.23
2022-09-30T22:14:10.521Z,23.10
2022-09-30T22:16:38.733Z,27.48
2022-09-30T22:19:09.504Z,22.50
2022-09-30T22:21:38.356Z,22.80
2022-09-30T22:24:09.991Z,30.25
2022-09-30T22:26:38.200Z,32.78
2022-09-30T22:29:11.948Z,44.47
2022-09-30T22:31:40.224Z,24.52
2022-09-30T22:34:31.582Z,26.38
2022-09-30T22:37:17.901Z,23.83
2022-09-30T22:39:45.011Z,26.23
2022-09-30T22:42:12.062Z,26.58
2022-09-30T22:44:39.340Z,25.48
2022-09-30T22:47:10.824Z,29.27
2022-09-30T22:49:37.853Z,23.83
2022-09-30T22:52:06.204Z,23.05
2022-09-30T22:54:36.551Z,23.35
2022-09-30T22:57:05.663Z,23.88
2022-09-30T22:59:32.640Z,23.63
2022-09-30T23:01:59.927Z,23.75
2022-09-30T23:04:28.190Z,22.02
2022-09-30T23:06:56.753Z,24.77
2022-09-30T23:09:24.454Z,27.48
2022-09-30T23:11:54.220Z,25.77
2022-09-30T23:14:24.740Z,23.50
2022-09-30T23:16:52.067Z,35.75
2022-09-30T23:19:20.057Z,43.42
2022-09-30T23:21:47.101Z,27.58
2022-09-30T23:24:14.423Z,29.40
2022-09-30T23:26:41.929Z,28.88
2022-09-30T23:29:13.670Z,25.40
2022-09-30T23:31:41.524Z,26.20
2022-09-30T23:34:09.194Z,25.67
2022-09-30T23:36:37.258Z,24.13
2022-09-30T23:39:18.641Z,39.72
2022-09-30T23:41:50.299Z,24.75
2022-09-30T23:44:20.016Z,30.63
2022-09-30T23:47:06.677Z,25.42
2022-09-30T23:49:35.980Z,24.40
2022-09-30T23:52:09.230Z,25.27
2022-09-30T23:54:41.569Z,24.90
2022-09-30T23:57:09.641Z,24.17
2022-09-30T23:59:37.355Z,25.10
